Time;durP1;ratioP1;P1;durP2;ratioP2;P2;SDS_P1;SDS_P2;PMS_P1;PMS_P2;Temp;Humidity;BMP_temperature;BMP_pressure;BME280_temperature;BME280_humidity;BME280_pressure;Samples;Min_cycle;Max_cycle;Signal;HPM_P1;HPM_P2
2021/12/28 00:01:27;;;;;;;38.25;16.13;;;;;;;7.14;100.00;96670.34;5079587;28;20413;-56
2021/12/28 00:03:53;;;;;;;39.13;17.27;;;;;;;7.00;100.00;96670.16;5080120;28;20033;-56
2021/12/28 00:06:20;;;;;;;38.42;15.32;;;;;;;7.04;100.00;96655.31;5077401;28;20571;-56
2021/12/28 00:08:47;;;;;;;42.78;16.15;;;;;;;7.13;100.00;96655.72;5080572;28;20024;-56
2021/12/28 00:11:14;;;;;;;31.38;13.02;;;;;;;7.08;100.00;96662.88;5081487;28;20059;-57
2021/12/28 00:13:41;;;;;;;37.40;15.95;;;;;;;7.04;100.00;96666.53;5082924;28;20147;-56
2021/12/28 00:18:35;;;;;;;30.02;12.65;;;;;;;7.11;100.00;96652.38;5075798;28;20028;-55
2021/12/28 00:21:02;;;;;;;17.52;8.85;;;;;;;7.68;100.00;96651.28;5079487;28;20028;-55
2021/12/28 00:23:35;;;;;;;30.85;13.77;;;;;;;7.64;100.00;96650.59;5082744;28;20028;-55
2021/12/28 00:26:01;;;;;;;31.70;14.48;;;;;;;7.59;100.00;96659.53;5078527;28;20075;-55
2021/12/28 00:28:26;;;;;;;32.42;13.82;;;;;;;7.48;100.00;96662.66;5081181;28;20439;-56
2021/12/28 00:30:52;;;;;;;29.90;14.02;;;;;;;7.19;100.00;96661.53;5081610;28;20127;-56
2021/12/28 00:33:21;;;;;;;28.75;13.88;;;;;;;7.29;100.00;96657.56;5081149;28;20032;-57
2021/12/28 00:35:46;;;;;;;29.75;13.85;;;;;;;7.48;100.00;96655.72;5080316;28;20501;-57
2021/12/28 00:38:18;;;;;;;18.40;9.52;;;;;;;7.88;100.00;96658.03;5077560;28;20023;-54
2021/12/28 00:40:48;;;;;;;28.15;13.02;;;;;;;7.37;100.00;96652.84;5077424;28;20032;-58
2021/12/28 00:43:14;;;;;;;28.00;12.95;;;;;;;7.33;100.00;96646.09;5082451;28;20030;-56
2021/12/28 00:45:39;;;;;;;28.85;12.82;;;;;;;8.04;100.00;96658.09;5076448;28;20039;-55
2021/12/28 00:48:05;;;;;;;21.45;10.75;;;;;;;7.87;100.00;96656.38;5079025;28;20118;-56
2021/12/28 00:50:31;;;;;;;26.38;13.45;;;;;;;7.60;100.00;96654.25;5075727;28;20033;-57
2021/12/28 00:52:57;;;;;;;28.00;12.55;;;;;;;7.81;100.00;96647.16;5076617;28;20718;-56
2021/12/28 00:55:23;;;;;;;23.55;12.95;;;;;;;7.11;100.00;96649.78;5080737;28;20097;-56
2021/12/28 00:57:50;;;;;;;28.65;13.85;;;;;;;7.24;100.00;96649.16;5081228;28;20553;-56
2021/12/28 01:00:19;;;;;;;25.15;12.57;;;;;;;7.42;100.00;96640.47;5077189;28;20029;-55
2021/12/28 01:02:45;;;;;;;24.20;11.85;;;;;;;7.27;100.00;96641.22;5080069;28;20035;-56
2021/12/28 01:05:11;;;;;;;27.20;12.45;;;;;;;7.32;100.00;96637.50;5080456;28;20020;-57
2021/12/28 01:07:37;;;;;;;38.10;12.98;;;;;;;7.28;100.00;96646.34;5075926;28;20102;-55
2021/12/28 01:10:06;;;;;;;28.38;13.43;;;;;;;7.56;100.00;96649.31;5077965;28;20142;-56
2021/12/28 01:12:32;;;;;;;23.80;11.27;;;;;;;7.65;100.00;96651.44;5073429;28;20481;-56
2021/12/28 01:14:57;;;;;;;23.88;11.73;;;;;;;7.72;100.00;96638.06;5078957;28;20111;-56
2021/12/28 01:17:23;;;;;;;25.30;12.50;;;;;;;7.39;100.00;96645.81;5075189;28;20054;-61
2021/12/28 01:19:48;;;;;;;28.67;12.73;;;;;;;7.45;100.00;96640.31;5080074;28;20020;-56
2021/12/28 01:22:14;;;;;;;24.55;11.18;;;;;;;7.90;100.00;96636.28;5081812;28;20035;-58
2021/12/28 01:24:39;;;;;;;22.95;11.43;;;;;;;7.89;100.00;96639.78;5080332;28;20028;-57
2021/12/28 01:27:04;;;;;;;21.92;11.57;;;;;;;7.38;100.00;96641.53;5081019;28;20611;-56
2021/12/28 01:29:30;;;;;;;22.90;10.77;;;;;;;7.63;100.00;96637.72;5080793;28;20513;-56
2021/12/28 01:31:55;;;;;;;23.70;11.65;;;;;;;7.91;100.00;96631.94;5075819;28;20040;-56
2021/12/28 01:34:21;;;;;;;22.58;11.80;;;;;;;7.70;100.00;96633.88;5076219;28;20031;-56
2021/12/28 01:36:46;;;;;;;23.30;11.38;;;;;;;7.63;100.00;96627.34;5078513;28;20039;-56
2021/12/28 01:39:12;;;;;;;26.17;11.38;;;;;;;7.78;100.00;96634.31;5081858;28;20050;-56
2021/12/28 01:41:39;;;;;;;25.35;12.45;;;;;;;7.73;100.00;96636.31;5079341;28;20047;-56
2021/12/28 01:44:08;;;;;;;24.17;12.73;;;;;;;7.59;100.00;96636.19;5079017;28;20009;-55
2021/12/28 01:46:35;;;;;;;21.67;12.15;;;;;;;7.64;100.00;96649.75;5081804;28;20059;-56
2021/12/28 01:49:01;;;;;;;24.27;12.40;;;;;;;7.47;100.00;96638.47;5076632;28;20024;-55
2021/12/28 01:51:28;;;;;;;17.90;9.88;;;;;;;7.77;100.00;96640.41;5076918;28;20043;-57
2021/12/28 01:53:57;;;;;;;26.17;12.82;;;;;;;7.46;100.00;96631.63;5076043;28;20024;-55
2021/12/28 01:56:34;;;;;;;24.92;12.82;;;;;;;7.91;100.00;96626.75;5075842;28;20028;-59
2021/12/28 01:59:00;;;;;;;23.33;11.20;;;;;;;8.10;100.00;96626.59;5075471;28;20031;-56
2021/12/28 02:01:26;;;;;;;23.17;12.00;;;;;;;7.85;100.00;96621.88;5078016;28;20131;-57
2021/12/28 02:03:52;;;;;;;20.25;11.27;;;;;;;7.70;100.00;96618.28;5078031;28;20495;-57
2021/12/28 02:06:17;;;;;;;22.02;10.85;;;;;;;7.83;100.00;96618.50;5079712;28;20610;-56
2021/12/28 02:08:44;;;;;;;23.42;11.90;;;;;;;7.71;100.00;96609.59;5073993;28;20034;-55
2021/12/28 02:11:12;;;;;;;18.42;9.32;;;;;;;7.58;100.00;96609.41;5080817;28;20295;-57
2021/12/28 02:13:38;;;;;;;18.38;10.18;;;;;;;7.74;100.00;96606.84;5079294;28;20107;-56
2021/12/28 02:16:03;;;;;;;22.13;11.85;;;;;;;7.87;100.00;96612.25;5080134;28;20119;-56
2021/12/28 02:18:32;;;;;;;21.60;11.45;;;;;;;7.63;100.00;96597.03;5079141;28;20071;-56
2021/12/28 02:20:59;;;;;;;22.23;11.43;;;;;;;7.64;100.00;96598.69;5083873;28;20805;-56
2021/12/28 02:23:25;;;;;;;24.30;10.55;;;;;;;7.37;100.00;96587.13;5079419;28;20110;-55
2021/12/28 02:25:51;;;;;;;17.30;9.63;;;;;;;7.61;100.00;96592.81;5078455;28;20150;-55
2021/12/28 02:28:17;;;;;;;23.48;12.10;;;;;;;8.01;100.00;96582.94;5076950;28;20028;-55
2021/12/28 02:30:47;;;;;;;19.45;11.80;;;;;;;7.61;100.00;96600.59;5084920;28;20039;-54
2021/12/28 02:33:13;;;;;;;19.67;10.82;;;;;;;7.61;100.00;96601.47;5082796;28;20186;-54
2021/12/28 02:35:39;;;;;;;22.10;10.93;;;;;;;7.50;100.00;96596.81;5080977;28;20038;-57
2021/12/28 02:38:07;;;;;;;18.63;9.65;;;;;;;7.21;100.00;96590.50;5075007;28;20126;-56
2021/12/28 02:40:36;;;;;;;17.15;9.45;;;;;;;7.49;100.00;96605.50;5083375;28;20036;-56
2021/12/28 02:43:03;;;;;;;28.35;12.07;;;;;;;7.52;100.00;96597.56;5083122;28;20024;-55
2021/12/28 02:45:36;;;;;;;16.58;8.65;;;;;;;7.30;100.00;96599.59;5082076;28;20488;-55
2021/12/28 02:48:02;;;;;;;19.00;8.98;;;;;;;7.73;100.00;96605.16;5083040;28;20118;-55
2021/12/28 02:50:34;;;;;;;22.48;11.75;;;;;;;7.48;100.00;96603.84;5078994;28;20148;-56
2021/12/28 02:52:59;;;;;;;21.30;10.98;;;;;;;7.35;100.00;96607.97;5077997;28;20517;-57
2021/12/28 02:55:28;;;;;;;25.50;13.70;;;;;;;7.05;100.00;96600.78;5080582;28;20501;-56
2021/12/28 02:57:56;;;;;;;22.77;12.65;;;;;;;6.95;100.00;96608.19;5077478;28;20027;-57
2021/12/28 03:00:34;;;;;;;27.58;13.27;;;;;;;7.65;100.00;96612.53;5078752;28;20039;-55
2021/12/28 03:03:05;;;;;;;22.80;11.07;;;;;;;7.18;100.00;96607.97;5078864;28;20035;-57
2021/12/28 03:05:31;;;;;;;29.45;13.30;;;;;;;7.36;100.00;96607.06;5080692;28;20048;-55
2021/12/28 03:07:57;;;;;;;20.05;11.40;;;;;;;7.28;100.00;96599.66;5077897;28;20539;-54
2021/12/28 03:10:22;;;;;;;21.38;11.13;;;;;;;7.21;100.00;96589.69;5078636;28;20043;-57
2021/12/28 03:12:47;;;;;;;22.70;11.57;;;;;;;7.12;100.00;96585.78;5080119;28;20474;-56
2021/12/28 03:15:13;;;;;;;17.17;8.55;;;;;;;7.80;100.00;96571.97;5079480;27;20672;-55
2021/12/28 03:17:40;;;;;;;24.73;12.07;;;;;;;7.85;100.00;96575.16;5079332;28;20765;-56
2021/12/28 03:20:06;;;;;;;22.42;11.50;;;;;;;7.70;100.00;96576.78;5080373;28;20028;-56
2021/12/28 03:22:36;;;;;;;23.98;11.65;;;;;;;7.66;100.00;96570.91;5078845;28;20104;-55
2021/12/28 03:25:02;;;;;;;18.52;10.23;;;;;;;7.78;100.00;96563.41;5081140;28;20027;-55
2021/12/28 03:27:27;;;;;;;24.77;12.98;;;;;;;7.61;100.00;96557.34;5080963;28;20043;-55
2021/12/28 03:29:53;;;;;;;23.17;11.57;;;;;;;7.93;100.00;96553.97;5078799;28;20020;-56
2021/12/28 03:32:18;;;;;;;21.30;10.57;;;;;;;7.80;100.00;96557.22;5081364;28;20035;-55
2021/12/28 03:34:44;;;;;;;18.80;10.43;;;;;;;7.82;100.00;96557.13;5079334;28;21017;-56
2021/12/28 03:37:09;;;;;;;17.55;9.73;;;;;;;8.08;100.00;96559.16;5077470;28;20032;-55
2021/12/28 03:39:35;;;;;;;17.00;9.13;;;;;;;7.98;100.00;96562.38;5079410;28;20023;-55
2021/12/28 03:42:00;;;;;;;22.13;10.10;;;;;;;7.90;100.00;96552.38;5079039;28;20476;-54
2021/12/28 03:44:25;;;;;;;27.27;12.90;;;;;;;7.83;100.00;96546.69;5082630;28;20028;-56
2021/12/28 03:46:51;;;;;;;24.60;12.93;;;;;;;7.74;100.00;96526.41;5079426;28;20051;-57
2021/12/28 03:49:17;;;;;;;21.02;11.52;;;;;;;7.83;100.00;96533.69;5082144;28;20032;-55
2021/12/28 03:51:42;;;;;;;27.85;13.63;;;;;;;8.04;100.00;96528.28;5083529;28;20037;-55
2021/12/28 03:54:07;;;;;;;26.10;12.40;;;;;;;8.28;100.00;96531.28;5076125;28;20024;-55
2021/12/28 03:56:33;;;;;;;19.33;9.35;;;;;;;8.05;100.00;96529.94;5081221;28;20036;-55
2021/12/28 03:58:58;;;;;;;26.15;11.32;;;;;;;8.07;100.00;96517.72;5085276;28;20024;-55
2021/12/28 04:01:25;;;;;;;20.73;10.90;;;;;;;7.97;100.00;96526.91;5075713;28;20048;-56
2021/12/28 04:03:51;;;;;;;28.33;12.70;;;;;;;8.11;100.00;96527.00;5058403;28;20044;-56
2021/12/28 04:06:19;;;;;;;19.95;10.00;;;;;;;7.95;100.00;96534.78;5082144;28;20111;-55
2021/12/28 04:08:45;;;;;;;26.23;11.52;;;;;;;8.06;100.00;96524.66;5078005;28;20080;-55
2021/12/28 04:13:47;;;;;;;25.58;12.77;;;;;;;8.21;100.00;96533.34;5082086;28;20080;-56
2021/12/28 04:16:13;;;;;;;28.60;12.80;;;;;;;7.63;100.00;96529.56;5081230;28;20039;-55
2021/12/28 04:18:39;;;;;;;23.48;11.50;;;;;;;7.73;100.00;96524.72;5078664;28;20024;-56
2021/12/28 04:21:04;;;;;;;30.08;11.50;;;;;;;7.63;100.00;96513.16;5079817;28;20035;-55
2021/12/28 04:23:30;;;;;;;25.83;12.02;;;;;;;7.69;100.00;96507.63;5082016;28;20036;-55
2021/12/28 04:25:55;;;;;;;27.80;13.00;;;;;;;7.67;100.00;96506.88;5076788;28;20127;-56
2021/12/28 04:28:21;;;;;;;24.70;11.80;;;;;;;7.70;100.00;96504.09;5080008;28;20028;-57
2021/12/28 04:30:46;;;;;;;29.48;12.50;;;;;;;7.70;100.00;96489.41;5077799;28;20040;-57
2021/12/28 04:33:11;;;;;;;23.33;11.45;;;;;;;7.80;100.00;96492.31;5078876;28;20594;-55
2021/12/28 04:35:37;;;;;;;26.15;11.65;;;;;;;7.46;100.00;96494.13;5080120;28;20946;-55
2021/12/28 04:38:02;;;;;;;30.05;14.07;;;;;;;7.68;100.00;96498.16;5078671;28;20019;-55
2021/12/28 04:40:28;;;;;;;25.30;11.80;;;;;;;8.02;100.00;96504.97;5080593;28;20036;-55
2021/12/28 04:42:54;;;;;;;29.02;13.52;;;;;;;7.61;100.00;96496.81;5078754;28;20081;-55
2021/12/28 04:45:19;;;;;;;30.42;12.63;;;;;;;7.65;100.00;96506.97;5078389;28;20032;-55
2021/12/28 04:47:45;;;;;;;29.80;11.60;;;;;;;7.31;100.00;96515.66;5084228;28;20034;-56
2021/12/28 04:50:11;;;;;;;24.88;11.48;;;;;;;7.70;100.00;96509.28;5080373;28;20067;-56
2021/12/28 04:52:39;;;;;;;30.40;13.68;;;;;;;7.57;100.00;96505.69;5076351;28;20024;-55
2021/12/28 04:55:10;;;;;;;32.63;13.18;;;;;;;7.86;100.00;96510.16;5077961;27;20028;-56
2021/12/28 04:57:35;;;;;;;32.70;13.10;;;;;;;7.56;100.00;96510.03;5076489;28;20701;-57
2021/12/28 05:00:02;;;;;;;29.15;11.70;;;;;;;7.37;100.00;96509.31;5077471;28;20497;-57
2021/12/28 05:02:27;;;;;;;28.55;12.02;;;;;;;7.30;100.00;96509.66;5077204;28;20483;-55
2021/12/28 05:04:53;;;;;;;30.30;12.15;;;;;;;7.85;100.00;96507.66;5078321;28;20489;-56
2021/12/28 05:07:18;;;;;;;32.22;11.88;;;;;;;7.65;100.00;96506.13;5077476;28;20651;-57
2021/12/28 05:09:43;;;;;;;28.88;13.30;;;;;;;7.36;100.00;96505.91;5075066;28;20028;-56
2021/12/28 05:12:09;;;;;;;26.02;10.98;;;;;;;7.36;100.00;96511.09;5081491;28;20140;-55
2021/12/28 05:14:39;;;;;;;28.20;11.75;;;;;;;7.58;100.00;96499.59;5077453;28;20034;-58
2021/12/28 05:17:04;;;;;;;27.45;12.00;;;;;;;8.01;100.00;96497.25;5078200;28;20031;-56
2021/12/28 05:19:30;;;;;;;20.58;10.20;;;;;;;7.75;100.00;96496.91;5076440;28;20124;-55
2021/12/28 05:21:55;;;;;;;30.00;11.82;;;;;;;7.53;100.00;96492.91;5079611;28;20036;-56
2021/12/28 05:24:20;;;;;;;30.45;12.55;;;;;;;7.74;100.00;96490.06;5079360;28;20024;-57
2021/12/28 05:26:46;;;;;;;29.33;12.40;;;;;;;7.32;100.00;96494.00;5076825;28;20123;-55
2021/12/28 05:29:12;;;;;;;32.75;13.80;;;;;;;7.51;100.00;96497.31;5077046;28;20120;-56
2021/12/28 05:31:37;;;;;;;24.60;10.98;;;;;;;7.37;100.00;96502.41;5076945;28;20086;-56
2021/12/28 05:34:03;;;;;;;31.08;12.82;;;;;;;7.19;100.00;96503.34;5081693;28;20023;-56
2021/12/28 05:36:28;;;;;;;27.52;11.90;;;;;;;7.95;100.00;96503.63;5081600;28;20059;-56
2021/12/28 05:38:54;;;;;;;26.65;11.13;;;;;;;7.51;100.00;96494.72;5079668;28;20016;-55
2021/12/28 05:41:20;;;;;;;33.28;13.20;;;;;;;7.44;100.00;96485.56;5078299;28;20460;-56
2021/12/28 05:43:45;;;;;;;32.53;12.50;;;;;;;6.89;100.00;96475.47;5078724;28;20515;-55
2021/12/28 05:46:11;;;;;;;29.17;12.40;;;;;;;7.50;100.00;96477.47;5078389;28;20779;-56
2021/12/28 05:48:36;;;;;;;31.02;12.68;;;;;;;7.57;100.00;96477.16;5075648;28;20180;-56
2021/12/28 05:51:02;;;;;;;28.13;11.95;;;;;;;7.37;100.00;96476.47;5077734;28;20037;-56
2021/12/28 05:53:27;;;;;;;31.08;12.43;;;;;;;7.30;100.00;96485.47;5079766;28;20111;-55
2021/12/28 05:55:53;;;;;;;25.88;11.05;;;;;;;7.32;100.00;96478.44;5080587;28;20119;-56
2021/12/28 05:58:18;;;;;;;26.48;10.98;;;;;;;7.51;100.00;96471.34;5080052;28;20728;-55
2021/12/28 06:00:44;;;;;;;30.23;11.02;;;;;;;7.39;100.00;96471.16;5082157;28;20064;-56
2021/12/28 06:03:09;;;;;;;31.63;12.07;;;;;;;7.64;100.00;96471.53;5081886;28;20561;-55
2021/12/28 06:05:34;;;;;;;29.17;12.77;;;;;;;7.23;100.00;96460.78;5075375;28;20036;-55
2021/12/28 06:08:00;;;;;;;27.00;11.57;;;;;;;7.18;100.00;96461.00;5079694;28;20029;-54
2021/12/28 06:10:25;;;;;;;26.38;11.05;;;;;;;7.39;100.00;96463.38;5088612;28;20038;-55
2021/12/28 06:12:51;;;;;;;25.63;10.50;;;;;;;7.60;100.00;96464.03;5077641;28;20800;-55
2021/12/28 06:15:16;;;;;;;30.10;10.70;;;;;;;7.30;100.00;96462.13;5079124;28;20649;-55
2021/12/28 06:17:42;;;;;;;26.52;10.35;;;;;;;7.40;100.00;96458.13;5085922;28;20027;-54
2021/12/28 06:20:08;;;;;;;29.17;11.52;;;;;;;7.50;100.00;96456.72;5082747;28;20031;-55
2021/12/28 06:22:34;;;;;;;28.98;12.48;;;;;;;7.34;100.00;96455.88;5085609;28;20035;-55
2021/12/28 06:24:59;;;;;;;29.80;11.32;;;;;;;7.72;100.00;96460.78;5087045;28;20185;-54
2021/12/28 06:27:24;;;;;;;30.83;12.18;;;;;;;7.72;100.00;96465.97;5082572;28;20048;-56
2021/12/28 06:29:50;;;;;;;28.17;10.68;;;;;;;7.75;100.00;96454.56;5081240;28;20041;-54
2021/12/28 06:32:16;;;;;;;28.30;11.75;;;;;;;7.67;100.00;96453.22;5084231;28;20043;-54
2021/12/28 06:34:42;;;;;;;25.08;9.98;;;;;;;7.71;100.00;96456.50;5077037;28;20449;-55
2021/12/28 06:37:07;;;;;;;14.70;7.55;;;;;;;8.27;100.00;96469.84;5080789;28;20037;-55
2021/12/28 06:39:32;;;;;;;32.60;12.50;;;;;;;7.20;100.00;96458.34;5084694;28;20028;-55
2021/12/28 06:41:58;;;;;;;20.73;9.70;;;;;;;7.58;100.00;96464.09;5085775;28;20047;-55
2021/12/28 06:44:24;;;;;;;26.63;11.23;;;;;;;7.83;100.00;96468.81;5083220;28;20123;-56
2021/12/28 06:46:50;;;;;;;27.10;11.52;;;;;;;7.48;100.00;96468.09;5081112;28;20752;-56
2021/12/28 06:49:16;;;;;;;22.88;10.18;;;;;;;7.46;100.00;96470.78;5086116;28;20534;-56
2021/12/28 06:51:42;;;;;;;24.02;9.98;;;;;;;7.11;100.00;96486.44;5080144;28;20044;-57
2021/12/28 06:54:08;;;;;;;21.50;9.65;;;;;;;7.44;100.00;96477.78;5100071;27;20024;-56
2021/12/28 06:56:33;;;;;;;28.85;11.73;;;;;;;7.07;100.00;96474.53;5087133;28;20117;-55
2021/12/28 06:58:58;;;;;;;26.33;10.60;;;;;;;7.70;100.00;96479.00;5079240;28;20758;-56
2021/12/28 07:01:24;;;;;;;26.35;10.95;;;;;;;7.63;100.00;96474.25;5082759;28;20043;-57
2021/12/28 07:03:50;;;;;;;27.10;11.93;;;;;;;7.03;100.00;96472.19;5082221;28;20027;-55
2021/12/28 07:06:16;;;;;;;27.38;12.65;;;;;;;7.10;100.00;96466.59;5086519;28;20493;-57
2021/12/28 07:08:42;;;;;;;28.20;12.63;;;;;;;7.17;100.00;96454.16;5086673;28;20032;-57
2021/12/28 07:11:07;;;;;;;28.80;12.15;;;;;;;7.25;100.00;96456.34;5078226;28;20028;-56
2021/12/28 07:13:33;;;;;;;26.02;11.30;;;;;;;7.17;100.00;96448.13;5079784;28;20057;-55
2021/12/28 07:15:58;;;;;;;24.42;11.00;;;;;;;7.43;100.00;96455.38;5077358;28;20032;-56
2021/12/28 07:18:23;;;;;;;24.55;10.55;;;;;;;7.16;100.00;96452.47;5079126;28;20024;-58
2021/12/28 07:20:49;;;;;;;25.50;12.15;;;;;;;6.94;100.00;96450.97;5077186;28;20050;-55
2021/12/28 07:23:15;;;;;;;30.58;11.98;;;;;;;7.01;100.00;96443.75;5081170;28;20027;-55
2021/12/28 07:25:40;;;;;;;27.17;11.82;;;;;;;6.88;100.00;96445.28;5083070;28;20182;-57
2021/12/28 07:28:06;;;;;;;27.20;11.07;;;;;;;7.22;100.00;96438.34;5080072;28;20114;-56
2021/12/28 07:30:32;;;;;;;28.40;11.60;;;;;;;7.03;100.00;96447.09;5081439;28;20059;-56
2021/12/28 07:32:57;;;;;;;25.00;10.98;;;;;;;6.95;100.00;96446.66;5078223;28;20027;-56
2021/12/28 07:35:22;;;;;;;26.73;11.88;;;;;;;7.05;100.00;96447.84;5078397;28;20118;-57
2021/12/28 07:37:48;;;;;;;31.23;12.65;;;;;;;6.97;100.00;96457.78;5083660;28;20112;-58
2021/12/28 07:40:14;;;;;;;25.40;11.32;;;;;;;7.24;100.00;96454.66;5079710;28;20027;-56
2021/12/28 07:42:40;;;;;;;27.75;12.82;;;;;;;6.88;100.00;96460.84;5081935;28;20039;-56
2021/12/28 07:45:09;;;;;;;38.97;11.88;;;;;;;6.77;100.00;96458.78;5074627;27;20613;-55
2021/12/28 07:47:35;;;;;;;30.08;12.85;;;;;;;6.40;100.00;96452.03;5073937;28;20028;-55
2021/12/28 07:50:00;;;;;;;25.40;12.02;;;;;;;6.80;100.00;96450.00;5075748;28;20029;-54
2021/12/28 07:52:26;;;;;;;25.75;11.32;;;;;;;6.58;100.00;96451.09;5083619;28;20028;-54
2021/12/28 07:54:51;;;;;;;26.48;11.40;;;;;;;6.98;100.00;96451.66;5076292;28;20055;-55
2021/12/28 07:57:17;;;;;;;25.23;11.75;;;;;;;6.78;100.00;96457.84;5077475;28;20111;-55
2021/12/28 07:59:42;;;;;;;24.08;10.73;;;;;;;6.57;100.00;96470.13;5079511;28;20028;-55
2021/12/28 08:02:07;;;;;;;24.73;11.35;;;;;;;6.79;100.00;96463.91;5083065;28;20470;-55
2021/12/28 08:04:33;;;;;;;13.63;6.70;;;;;;;7.18;100.00;96471.38;5080990;28;20596;-55
2021/12/28 08:06:58;;;;;;;26.00;11.35;;;;;;;6.50;100.00;96473.94;5081568;28;20106;-55
2021/12/28 08:09:24;;;;;;;27.50;11.55;;;;;;;6.10;100.00;96475.88;5078951;28;20063;-55
2021/12/28 08:11:49;;;;;;;20.25;8.93;;;;;;;6.97;100.00;96475.09;5083446;28;20101;-55
2021/12/28 08:14:15;;;;;;;21.05;9.70;;;;;;;7.28;100.00;96466.56;5075742;28;20492;-55
2021/12/28 08:16:40;;;;;;;22.60;10.85;;;;;;;6.74;100.00;96480.50;5074736;28;20113;-56
2021/12/28 08:19:08;;;;;;;18.38;8.07;;;;;;;6.96;100.00;96487.19;5077821;28;20024;-56
2021/12/28 08:21:33;;;;;;;27.75;11.07;;;;;;;6.69;100.00;96490.28;5082748;28;20043;-56
2021/12/28 08:23:59;;;;;;;23.67;11.45;;;;;;;6.55;100.00;96487.53;5075940;28;20024;-55
2021/12/28 08:26:24;;;;;;;22.23;10.25;;;;;;;6.70;100.00;96489.34;5072512;28;20044;-57
2021/12/28 08:28:50;;;;;;;25.92;10.57;;;;;;;6.59;100.00;96478.66;5077900;28;20072;-56
2021/12/28 08:31:15;;;;;;;18.23;8.40;;;;;;;6.80;100.00;96481.97;5073694;28;20058;-56
2021/12/28 08:33:41;;;;;;;20.73;10.25;;;;;;;6.37;100.00;96478.88;5078457;28;20118;-56
2021/12/28 08:36:06;;;;;;;18.80;10.02;;;;;;;5.50;100.00;96465.69;5084724;28;20120;-55
2021/12/28 08:38:31;;;;;;;27.50;11.77;;;;;;;5.59;100.00;96467.84;5076489;28;20114;-57
2021/12/28 08:40:59;;;;;;;25.67;12.40;;;;;;;5.63;100.00;96468.56;5076981;28;20421;-56
2021/12/28 08:43:24;;;;;;;24.80;9.98;;;;;;;6.54;100.00;96472.88;5079027;28;20083;-56
2021/12/28 08:45:50;;;;;;;28.60;11.77;;;;;;;6.20;100.00;96461.59;5076601;28;20122;-57
2021/12/28 08:48:15;;;;;;;25.40;11.30;;;;;;;6.20;100.00;96461.59;5079826;28;20689;-55
2021/12/28 08:50:42;;;;;;;23.60;10.88;;;;;;;6.30;100.00;96456.78;5075308;28;20056;-54
2021/12/28 08:53:10;;;;;;;32.50;10.45;;;;;;;6.77;100.00;96452.78;5074843;28;20020;-54
2021/12/28 08:55:35;;;;;;;23.45;9.80;;;;;;;6.89;100.00;96452.13;5076543;28;20048;-55
2021/12/28 08:58:01;;;;;;;19.08;9.40;;;;;;;7.04;100.00;96453.97;5078524;28;20073;-56
2021/12/28 09:00:30;;;;;;;18.00;9.25;;;;;;;6.87;100.00;96451.38;5075522;28;20040;-55
2021/12/28 09:02:57;;;;;;;19.70;10.15;;;;;;;7.05;100.00;96453.03;5075887;28;20024;-54
2021/12/28 09:05:24;;;;;;;17.77;8.30;;;;;;;7.50;100.00;96442.94;5075620;28;20055;-55
2021/12/28 09:07:50;;;;;;;31.77;7.60;;;;;;;7.50;100.00;96429.97;5083269;28;20031;-56
2021/12/28 09:10:16;;;;;;;25.15;9.57;;;;;;;6.65;100.00;96438.66;5077534;28;20039;-54
2021/12/28 09:12:41;;;;;;;20.45;8.98;;;;;;;6.18;100.00;96422.81;5081504;28;20031;-55
2021/12/28 09:15:08;;;;;;;22.52;11.15;;;;;;;5.59;100.00;96414.38;5076024;28;20073;-55
2021/12/28 09:17:34;;;;;;;21.48;9.05;;;;;;;6.04;100.00;96419.22;5081192;28;20080;-57
2021/12/28 09:20:02;;;;;;;19.98;9.13;;;;;;;5.87;100.00;96418.25;5081207;28;20019;-55
2021/12/28 09:22:28;;;;;;;23.55;9.55;;;;;;;5.80;100.00;96417.69;5075651;28;20036;-58
2021/12/28 09:24:53;;;;;;;21.63;8.80;;;;;;;5.92;100.00;96412.88;5074445;28;20771;-55
2021/12/28 09:27:19;;;;;;;22.20;9.40;;;;;;;6.14;100.00;96412.69;5074039;28;20578;-55
2021/12/28 09:29:44;;;;;;;21.30;10.05;;;;;;;5.77;100.00;96404.06;5084260;28;20023;-55
2021/12/28 09:32:10;;;;;;;19.13;7.70;;;;;;;5.93;100.00;96405.00;5077778;28;20125;-57
2021/12/28 09:34:36;;;;;;;20.70;8.43;;;;;;;6.00;100.00;96397.00;5079393;28;20110;-54
2021/12/28 09:37:02;;;;;;;15.70;6.85;;;;;;;6.59;100.00;96400.13;5075866;28;20132;-56
2021/12/28 09:39:28;;;;;;;21.13;7.05;;;;;;;5.87;100.00;96382.03;5082692;28;20063;-55
2021/12/28 09:41:58;;;;;;;12.48;5.57;;;;;;;6.11;100.00;96399.91;5081865;28;20094;-55
2021/12/28 09:44:25;;;;;;;18.25;7.50;;;;;;;6.11;100.00;96389.53;5077847;28;20027;-55
2021/12/28 09:46:50;;;;;;;14.18;5.85;;;;;;;5.90;100.00;96381.88;5083768;28;20436;-55
2021/12/28 09:49:16;;;;;;;11.38;5.38;;;;;;;5.59;100.00;96393.69;5078705;28;20565;-54
2021/12/28 09:51:41;;;;;;;17.65;7.10;;;;;;;5.67;100.00;96392.47;5083160;28;20112;-56
2021/12/28 09:54:07;;;;;;;17.80;7.43;;;;;;;6.34;100.00;96390.97;5076031;28;20035;-56
2021/12/28 09:56:33;;;;;;;16.58;6.82;;;;;;;6.09;100.00;96386.19;5070393;28;20043;-54
2021/12/28 09:59:00;;;;;;;8.85;4.53;;;;;;;6.07;100.00;96383.69;5078622;28;20064;-55
2021/12/28 10:01:26;;;;;;;17.63;7.68;;;;;;;6.54;100.00;96377.91;5082516;28;20040;-54
2021/12/28 10:03:52;;;;;;;11.35;4.68;;;;;;;6.02;100.00;96375.28;5078592;28;20027;-54
2021/12/28 10:06:25;;;;;;;14.98;6.25;;;;;;;6.28;100.00;96366.22;5082788;28;20064;-55
2021/12/28 10:09:03;;;;;;;14.82;7.00;;;;;;;5.96;100.00;96355.72;5082920;28;20024;-56
2021/12/28 10:11:32;;;;;;;15.07;6.50;;;;;;;6.32;100.00;96367.78;5074563;28;20039;-56
2021/12/28 10:14:15;;;;;;;13.55;6.03;;;;;;;6.60;100.00;96356.03;5075176;28;20064;-56
2021/12/28 10:16:51;;;;;;;11.43;5.43;;;;;;;6.14;100.00;96358.34;5074695;28;20047;-55
2021/12/28 10:19:35;;;;;;;14.52;6.18;;;;;;;6.03;100.00;96351.09;5073898;28;20838;-55
2021/12/28 10:22:34;;;;;;;16.90;7.28;;;;;;;6.78;100.00;96345.59;5075379;28;20067;-55
2021/12/28 10:25:07;;;;;;;12.00;5.15;;;;;;;6.30;100.00;96348.88;5073432;28;20016;-56
2021/12/28 10:27:33;;;;;;;12.60;5.55;;;;;;;6.55;100.00;96342.47;5072733;28;20036;-55
2021/12/28 10:30:10;;;;;;;11.30;5.82;;;;;;;6.51;100.00;96341.78;5078591;28;20053;-57
2021/12/28 10:32:36;;;;;;;16.33;6.40;;;;;;;7.17;100.00;96334.88;5068466;28;20226;-55
2021/12/28 10:35:09;;;;;;;13.38;6.88;;;;;;;6.71;100.00;96332.97;5088363;28;20036;-55
2021/12/28 10:37:36;;;;;;;;;;;;;;;7.00;100.00;96332.34;5072080;28;20123;-55
2021/12/28 10:40:05;;;;;;;17.20;7.20;;;;;;;7.03;100.00;96333.03;5073616;28;20517;-56
2021/12/28 10:42:48;;;;;;;11.15;5.72;;;;;;;6.82;100.00;96332.41;5074325;28;20870;-55
2021/12/28 10:45:23;;;;;;;;;;;;;;;7.14;100.00;96329.84;5072950;28;20051;-57
2021/12/28 10:47:52;;;;;;;14.55;5.65;;;;;;;6.88;100.00;96321.72;5084051;28;19915;-56
2021/12/28 10:50:36;;;;;;;13.30;5.82;;;;;;;7.13;100.00;96318.66;5077827;28;20036;-58
2021/12/28 10:53:20;;;;;;;12.68;5.43;;;;;;;6.98;100.00;96319.47;5076390;28;20032;-59
2021/12/28 10:55:50;;;;;;;11.88;6.07;;;;;;;7.19;100.00;96317.50;5079834;28;20046;-58
2021/12/28 10:58:32;;;;;;;14.88;5.43;;;;;;;7.05;100.00;96302.66;5076496;28;20437;-59
2021/12/28 11:01:26;;;;;;;10.52;5.40;;;;;;;7.37;100.00;96300.09;5070693;28;20036;-58
2021/12/28 11:03:56;;;;;;;9.55;4.72;;;;;;;7.16;100.00;96293.47;5068305;28;20170;-58
2021/12/28 11:06:25;;;;;;;12.30;4.93;;;;;;;7.69;100.00;96287.91;5089829;27;20041;-57
2021/12/28 11:08:54;;;;;;;10.63;4.57;;;;;;;7.84;100.00;96288.78;5090025;27;20586;-59
2021/12/28 11:11:22;;;;;;;10.13;5.25;;;;;;;7.88;100.00;96281.66;5080698;28;20028;-58
2021/12/28 11:13:52;;;;;;;9.93;4.68;;;;;;;7.97;100.00;96272.50;5071837;28;20056;-58
2021/12/28 11:16:19;;;;;;;8.55;3.60;;;;;;;7.47;100.00;96274.47;5073094;28;20032;-58
2021/12/28 11:18:48;;;;;;;7.75;3.90;;;;;;;7.77;100.00;96266.69;5076104;28;20090;-58
2021/12/28 11:21:28;;;;;;;8.65;3.63;;;;;;;8.09;100.00;96271.78;5078018;28;20035;-56
2021/12/28 11:24:03;;;;;;;12.15;4.43;;;;;;;8.09;100.00;96266.59;5076433;28;20115;-57